Nearby METAR Reports

 

KPMP - Pompano Beach, Florida, USA
Distance from station: NNW 3mi, 5km
Updated: 09/22/2018 10:53pm
Clear
Clear
 Wind from E
Wind: E 7 mph , 11 km/h
Temperature: 82°F , 28°C
Heat Index: 87°F , 31°C
Dew Point: 73°F , 23°C
Humidity: 74%
Barometer: 29.99 inHg , 1015.6 hPa
Clouds: Clear
Visibility: 10 miles , 16 km
2018/09/23 02:53 KPMP 230253Z AUTO 09006KT 10SM CLR 28/23 A2999 RMK AO2 SLP157 T02830228 51013
KFXE - Ft Lauderd/Exec, Florida, USA
Distance from station: W 6mi, 9km
Updated: 09/22/2018 10:53pm
Few Clouds
Few Clouds
 Wind from E
Wind: E 7 mph , 11 km/h
Temperature: 82°F , 28°C
Heat Index: 87°F , 31°C
Dew Point: 73°F , 23°C
Humidity: 74%
Barometer: 29.99 inHg , 1015.6 hPa
Clouds: Few Clouds
Visibility: 10 miles , 16 km
Cloud details: Few Clouds 3000 ft
2018/09/23 02:53 KFXE 230253Z 08006KT 10SM FEW030 28/23 A2999 RMK AO2 SLP158 T02780233 53012
 
KFLL - Ft Lauderd/Holly, Florida, USA
Distance from station: SSW 11mi, 17km
Updated: 09/22/2018 10:53pm
Mostly cloudy
Mostly cloudy
 Wind from E
Wind: E 7 mph , 11 km/h
Temperature: 82°F , 28°C
Heat Index: 87°F , 31°C
Dew Point: 73°F , 23°C
Humidity: 74%
Barometer: 29.98 inHg , 1015.2 hPa
Clouds: Mostly cloudy
Visibility: 10 miles , 16 km
Cloud details: Few Clouds 2500 ft
Mostly cloudy 20000 ft
2018/09/23 02:53 KFLL 230253Z 09006KT 10SM FEW025 BKN200 28/23 A2998 RMK AO2 SLP153 T02830233 51013
KBCT - Boca Raton, Florida, USA
Distance from station: N 12mi, 19km
Updated: 09/22/2018 10:47pm
Mostly cloudy
Mostly cloudy
 Wind from E
Wind: E 6 mph , 9 km/h
Temperature: 82°F , 28°C
Heat Index: 89°F , 32°C
Dew Point: 75°F , 24°C
Humidity: 79%
Barometer: 29.99 inHg , 1015.6 hPa
Clouds: Mostly cloudy
Visibility: 10 miles , 16 km
Cloud details: Partly cloudy 2200 ft
Mostly cloudy 2800 ft
2018/09/23 02:47 KBCT 230247Z 09005KT 10SM SCT022 BKN028 28/24 A2999 RMK LAST
 
KHWO - Hollywood, Florida, USA
Distance from station: SSW 17mi, 27km
Updated: 09/22/2018 10:53pm
Clear
Clear
 Wind from E
Wind: E 5 mph , 7 km/h
Temperature: 82°F , 28°C
Heat Index: 87°F , 31°C
Dew Point: 73°F , 23°C
Humidity: 74%
Barometer: 30.00 inHg , 1015.9 hPa
Clouds: Clear
Visibility: 10 miles , 16 km
2018/09/23 02:53 KHWO 230253Z AUTO 09004KT 10SM CLR 28/23 A3000 RMK AO2 SLP160 T02830233 51014
KOPF - Miami/Opa Locka, Florida, USA
Distance from station: SSW 24mi, 38km
Updated: 09/22/2018 10:53pm
Clear
Clear
 Wind from E
Wind: E 6 mph , 9 km/h
Temperature: 81°F , 27°C
Heat Index: 87°F , 31°C
Dew Point: 75°F , 24°C
Humidity: 84%
Barometer: 30.00 inHg , 1015.9 hPa
Clouds: Clear
Visibility: 10 miles , 16 km
2018/09/23 02:53 KOPF 230253Z AUTO 10005KT 10SM CLR 27/24 A3000 RMK AO2 SLP159 T02720239 51015
 
KMIA - Miami, Florida, USA
Distance from station: SSW 31mi, 50km
Updated: 09/22/2018 10:53pm
Partly cloudy
Partly cloudy
 Wind from E
Wind: E 7 mph , 11 km/h
Temperature: 82°F , 28°C
Heat Index: 90°F , 32°C
Dew Point: 77°F , 25°C
Humidity: 84%
Barometer: 29.99 inHg , 1015.6 hPa
Clouds: Partly cloudy
Visibility: 10 miles , 16 km
Cloud details: Partly cloudy 2100 ft
Partly cloudy 25000 ft
2018/09/23 02:53 KMIA 230253Z 08006KT 10SM SCT021 SCT250 28/25 A2999 RMK AO2 SLP156 T02780250 51014 $
KPBI - West Palm Beach, Florida, USA
Distance from station: N 33mi, 52km
Updated: 09/22/2018 10:53pm
Mostly cloudy
Mostly cloudy
 Wind from E
Wind: E 10 mph , 17 km/h
Temperature: 82°F , 28°C
Heat Index: 89°F , 32°C
Dew Point: 75°F , 24°C
Humidity: 79%
Barometer: 30.00 inHg , 1015.9 hPa
Clouds: Mostly cloudy
Visibility: 10 miles , 16 km
Cloud details: Partly cloudy 1800 ft
Partly cloudy 3500 ft
Mostly cloudy 20000 ft
2018/09/23 02:53 KPBI 230253Z 09009KT 10SM SCT018 SCT035 BKN200 28/24 A3000 RMK AO2 SLP158 T02830244 53011
 
KTMB - Miami/Tamiami, Florida, USA
Distance from station: SSW 44mi, 71km
Updated: 09/22/2018 10:53pm
Light rain, Mostly cloudy
Light rain, Mostly cloudy
 Wind from E
Wind: E 5 mph , 7 km/h
Temperature: 81°F , 27°C
Heat Index: 87°F , 31°C
Dew Point: 75°F , 24°C
Humidity: 84%
Barometer: 29.99 inHg , 1015.6 hPa
Summary: Light rain
Clouds: Mostly cloudy
Visibility: 10 miles , 16 km
Cloud details: Few Clouds 2000 ft
Partly cloudy 2500 ft
Mostly cloudy 4600 ft
2018/09/23 02:53 KTMB 230253Z AUTO 08004KT 10SM -RA FEW020 SCT025 BKN046 27/24 A2999 RMK AO2 RAB49 SLP154 LAST P0000 60000 T02720244 51014